KFCH/FCH METAR and TAF weather

Enter ICAO airport designator
Station Type Date Time Source
KFCH METAR 2019/10/22 17:15 UTC NOAA

KFCH 221715Z AUTO 00000KT 9SM CLR 21/10 A3022 RMK A01


Station Type Date Time Source
KFCH Decoded METAR 2019/10/22 17:15 UTC NOAA

Fresno-Chandler, CA, United States (KFCH) 36-44N 119-49W
Oct 22, 2019 - 01:15 PM EDT / 2019.10.22 1715 UTC
Wind: Calm:0
Visibility: 9 mile(s):0
Sky conditions: clear
Temperature: 69 F (21 C)
Dew Point: 50 F (10 C)
Relative Humidity: 49%
Pressure (altimeter): 30.22 in. Hg (1023 hPa)
ob: KFCH 221715Z AUTO 00000KT 9SM CLR 21/10 A3022 RMK A01
cycle: 17

Station Type Date Time Source
KFCH TAF UTC NOAA

Error!

Example: see airport list